sensor_id;sensor_type;location;lat;lon;timestamp;pressure;altitude;pressure_sealevel;temperature
75273;BMP280;63869;52.344;16.928;2022-12-26T00:02:07;100488.47;;;9.94
75273;BMP280;63869;52.344;16.928;2022-12-26T00:04:33;100460.94;;;9.97
75273;BMP280;63869;52.344;16.928;2022-12-26T00:06:58;100464.34;;;10.02
75273;BMP280;63869;52.344;16.928;2022-12-26T00:09:23;100445.28;;;9.99
75273;BMP280;63869;52.344;16.928;2022-12-26T00:11:49;100419.47;;;9.89
75273;BMP280;63869;52.344;16.928;2022-12-26T00:14:15;100425.75;;;10.02
75273;BMP280;63869;52.344;16.928;2022-12-26T00:16:42;100396.84;;;9.97
75273;BMP280;63869;52.344;16.928;2022-12-26T00:19:08;100404.38;;;10.02
75273;BMP280;63869;52.344;16.928;2022-12-26T00:21:34;100409.00;;;10.02
75273;BMP280;63869;52.344;16.928;2022-12-26T00:24:00;100396.97;;;9.90
75273;BMP280;63869;52.344;16.928;2022-12-26T00:26:27;100394.41;;;9.83
75273;BMP280;63869;52.344;16.928;2022-12-26T00:28:54;100406.88;;;9.90
75273;BMP280;63869;52.344;16.928;2022-12-26T00:31:24;100425.13;;;9.95
75273;BMP280;63869;52.344;16.928;2022-12-26T00:33:50;100420.91;;;9.97
75273;BMP280;63869;52.344;16.928;2022-12-26T00:36:18;100428.91;;;9.97
75273;BMP280;63869;52.344;16.928;2022-12-26T00:38:44;100432.69;;;10.00
75273;BMP280;63869;52.344;16.928;2022-12-26T00:41:11;100443.72;;;10.02
75273;BMP280;63869;52.344;16.928;2022-12-26T00:43:37;100425.34;;;10.04
75273;BMP280;63869;52.344;16.928;2022-12-26T00:46:03;100434.13;;;10.05
75273;BMP280;63869;52.344;16.928;2022-12-26T00:48:28;100423.03;;;10.06
75273;BMP280;63869;52.344;16.928;2022-12-26T00:50:54;100404.88;;;9.97
75273;BMP280;63869;52.344;16.928;2022-12-26T00:53:21;100409.72;;;10.02
75273;BMP280;63869;52.344;16.928;2022-12-26T00:55:46;100415.38;;;10.08
75273;BMP280;63869;52.344;16.928;2022-12-26T00:58:12;100415.75;;;10.10
75273;BMP280;63869;52.344;16.928;2022-12-26T01:00:37;100415.03;;;10.06
75273;BMP280;63869;52.344;16.928;2022-12-26T01:03:05;100416.16;;;10.09
75273;BMP280;63869;52.344;16.928;2022-12-26T01:05:31;100409.28;;;10.08
75273;BMP280;63869;52.344;16.928;2022-12-26T01:07:56;100406.16;;;10.13
75273;BMP280;63869;52.344;16.928;2022-12-26T01:10:22;100394.78;;;10.09
75273;BMP280;63869;52.344;16.928;2022-12-26T01:12:47;100389.03;;;10.10
75273;BMP280;63869;52.344;16.928;2022-12-26T01:15:12;100392.13;;;10.09
75273;BMP280;63869;52.344;16.928;2022-12-26T01:17:37;100395.16;;;10.07
75273;BMP280;63869;52.344;16.928;2022-12-26T01:20:03;100395.47;;;10.13
75273;BMP280;63869;52.344;16.928;2022-12-26T01:22:29;100386.38;;;10.10
75273;BMP280;63869;52.344;16.928;2022-12-26T01:24:55;100396.94;;;10.17
75273;BMP280;63869;52.344;16.928;2022-12-26T01:27:22;100389.66;;;10.18
75273;BMP280;63869;52.344;16.928;2022-12-26T01:29:48;100387.41;;;10.16
75273;BMP280;63869;52.344;16.928;2022-12-26T01:32:13;100387.00;;;10.18
75273;BMP280;63869;52.344;16.928;2022-12-26T01:34:38;100384.78;;;10.13
75273;BMP280;63869;52.344;16.928;2022-12-26T01:37:04;100373.22;;;10.19
75273;BMP280;63869;52.344;16.928;2022-12-26T01:39:29;100329.19;;;10.04
75273;BMP280;63869;52.344;16.928;2022-12-26T01:41:55;100329.91;;;10.08
75273;BMP280;63869;52.344;16.928;2022-12-26T01:47:28;100322.13;;;10.17
75273;BMP280;63869;52.344;16.928;2022-12-26T01:49:55;100299.38;;;10.09
75273;BMP280;63869;52.344;16.928;2022-12-26T01:52:30;100279.47;;;9.90
75273;BMP280;63869;52.344;16.928;2022-12-26T01:54:57;100319.44;;;10.17
75273;BMP280;63869;52.344;16.928;2022-12-26T01:57:28;100312.34;;;10.11
75273;BMP280;63869;52.344;16.928;2022-12-26T01:59:57;100311.50;;;10.14
75273;BMP280;63869;52.344;16.928;2022-12-26T02:02:25;100317.69;;;10.11
75273;BMP280;63869;52.344;16.928;2022-12-26T02:04:51;100321.44;;;10.13
75273;BMP280;63869;52.344;16.928;2022-12-26T02:07:43;100314.56;;;10.12
75273;BMP280;63869;52.344;16.928;2022-12-26T02:10:14;100300.91;;;10.10
75273;BMP280;63869;52.344;16.928;2022-12-26T02:12:41;100281.13;;;10.04
75273;BMP280;63869;52.344;16.928;2022-12-26T02:15:12;100281.06;;;10.08
75273;BMP280;63869;52.344;16.928;2022-12-26T02:17:39;100261.47;;;9.94
75273;BMP280;63869;52.344;16.928;2022-12-26T02:20:21;100281.34;;;10.13
75273;BMP280;63869;52.344;16.928;2022-12-26T02:39:25;100250.06;;;10.14
75273;BMP280;63869;52.344;16.928;2022-12-26T02:47:35;100185.31;;;9.86
75273;BMP280;63869;52.344;16.928;2022-12-26T02:56:19;100208.56;;;10.09
75273;BMP280;63869;52.344;16.928;2022-12-26T03:02:21;100202.50;;;10.05
75273;BMP280;63869;52.344;16.928;2022-12-26T03:05:15;100208.47;;;10.13
75273;BMP280;63869;52.344;16.928;2022-12-26T03:08:02;100200.16;;;10.11
75273;BMP280;63869;52.344;16.928;2022-12-26T03:10:48;100201.56;;;10.15
75273;BMP280;63869;52.344;16.928;2022-12-26T03:13:33;100205.75;;;10.16
75273;BMP280;63869;52.344;16.928;2022-12-26T03:16:08;100197.22;;;10.21
75273;BMP280;63869;52.344;16.928;2022-12-26T03:18:58;100166.63;;;10.06
75273;BMP280;63869;52.344;16.928;2022-12-26T03:21:29;100184.72;;;10.18
75273;BMP280;63869;52.344;16.928;2022-12-26T03:23:57;100180.13;;;10.19
75273;BMP280;63869;52.344;16.928;2022-12-26T03:26:30;100192.19;;;10.27
75273;BMP280;63869;52.344;16.928;2022-12-26T03:29:10;100182.16;;;10.31
75273;BMP280;63869;52.344;16.928;2022-12-26T03:31:55;100182.94;;;10.31
75273;BMP280;63869;52.344;16.928;2022-12-26T03:34:21;100183.75;;;10.28
75273;BMP280;63869;52.344;16.928;2022-12-26T03:42:33;100187.34;;;10.38
75273;BMP280;63869;52.344;16.928;2022-12-26T03:48:47;100173.94;;;10.22
75273;BMP280;63869;52.344;16.928;2022-12-26T03:51:39;100183.19;;;10.37
75273;BMP280;63869;52.344;16.928;2022-12-26T03:54:36;100163.56;;;10.27
75273;BMP280;63869;52.344;16.928;2022-12-26T03:57:30;100201.03;;;10.44
75273;BMP280;63869;52.344;16.928;2022-12-26T04:00:16;100195.25;;;10.45
75273;BMP280;63869;52.344;16.928;2022-12-26T04:03:10;100193.41;;;10.42
75273;BMP280;63869;52.344;16.928;2022-12-26T04:05:58;100195.69;;;10.44
75273;BMP280;63869;52.344;16.928;2022-12-26T04:12:04;100196.44;;;10.44
75273;BMP280;63869;52.344;16.928;2022-12-26T04:15:23;100207.78;;;10.48
75273;BMP280;63869;52.344;16.928;2022-12-26T04:18:08;100204.75;;;10.46
75273;BMP280;63869;52.344;16.928;2022-12-26T04:23:34;100195.56;;;10.47
75273;BMP280;63869;52.344;16.928;2022-12-26T04:29:07;100208.94;;;10.47
75273;BMP280;63869;52.344;16.928;2022-12-26T04:34:58;100185.63;;;10.48
75273;BMP280;63869;52.344;16.928;2022-12-26T04:37:45;100179.72;;;10.40
75273;BMP280;63869;52.344;16.928;2022-12-26T04:40:33;100153.19;;;10.29
75273;BMP280;63869;52.344;16.928;2022-12-26T04:43:19;100159.00;;;10.44
75273;BMP280;63869;52.344;16.928;2022-12-26T04:46:04;100151.63;;;10.32
75273;BMP280;63869;52.344;16.928;2022-12-26T04:48:29;100152.72;;;10.34
75273;BMP280;63869;52.344;16.928;2022-12-26T04:51:13;100179.53;;;10.47
75273;BMP280;63869;52.344;16.928;2022-12-26T04:53:38;100167.47;;;10.39
75273;BMP280;63869;52.344;16.928;2022-12-26T04:56:04;100181.22;;;10.41
75273;BMP280;63869;52.344;16.928;2022-12-26T04:58:29;100174.84;;;10.35
75273;BMP280;63869;52.344;16.928;2022-12-26T05:00:54;100188.41;;;10.44
75273;BMP280;63869;52.344;16.928;2022-12-26T05:03:40;100172.06;;;10.39
75273;BMP280;63869;52.344;16.928;2022-12-26T05:06:23;100173.44;;;10.47
75273;BMP280;63869;52.344;16.928;2022-12-26T05:09:09;100169.00;;;10.40
75273;BMP280;63869;52.344;16.928;2022-12-26T05:11:53;100152.63;;;10.38
75273;BMP280;63869;52.344;16.928;2022-12-26T05:14:19;100137.56;;;10.28
75273;BMP280;63869;52.344;16.928;2022-12-26T05:16:44;100157.06;;;10.45
75273;BMP280;63869;52.344;16.928;2022-12-26T05:19:28;100173.38;;;10.50
75273;BMP280;63869;52.344;16.928;2022-12-26T05:22:12;100159.97;;;10.34
75273;BMP280;63869;52.344;16.928;2022-12-26T05:24:56;100186.31;;;10.52
75273;BMP280;63869;52.344;16.928;2022-12-26T05:27:42;100148.59;;;10.30
75273;BMP280;63869;52.344;16.928;2022-12-26T05:30:27;100170.34;;;10.48
75273;BMP280;63869;52.344;16.928;2022-12-26T05:32:52;100164.66;;;10.46
75273;BMP280;63869;52.344;16.928;2022-12-26T05:35:37;100165.69;;;10.52
75273;BMP280;63869;52.344;16.928;2022-12-26T05:38:03;100164.84;;;10.55
75273;BMP280;63869;52.344;16.928;2022-12-26T05:40:29;100162.16;;;10.55
75273;BMP280;63869;52.344;16.928;2022-12-26T05:42:54;100163.28;;;10.58
75273;BMP280;63869;52.344;16.928;2022-12-26T05:45:19;100165.97;;;10.58
75273;BMP280;63869;52.344;16.928;2022-12-26T05:47:45;100168.22;;;10.59
75273;BMP280;63869;52.344;16.928;2022-12-26T05:50:10;100176.41;;;10.68
75273;BMP280;63869;52.344;16.928;2022-12-26T05:52:35;100175.22;;;10.69
75273;BMP280;63869;52.344;16.928;2022-12-26T05:55:01;100161.19;;;10.65
75273;BMP280;63869;52.344;16.928;2022-12-26T05:57:26;100176.72;;;10.70
75273;BMP280;63869;52.344;16.928;2022-12-26T05:59:51;100169.84;;;10.73
75273;BMP280;63869;52.344;16.928;2022-12-26T06:02:16;100167.53;;;10.71
75273;BMP280;63869;52.344;16.928;2022-12-26T06:04:42;100171.00;;;10.72
75273;BMP280;63869;52.344;16.928;2022-12-26T06:07:07;100169.84;;;10.73
75273;BMP280;63869;52.344;16.928;2022-12-26T06:09:32;100173.25;;;10.74
75273;BMP280;63869;52.344;16.928;2022-12-26T06:11:57;100188.03;;;10.78
75273;BMP280;63869;52.344;16.928;2022-12-26T06:14:23;100161.13;;;10.69
75273;BMP280;63869;52.344;16.928;2022-12-26T06:16:48;100160.78;;;10.67
75273;BMP280;63869;52.344;16.928;2022-12-26T06:19:14;100174.59;;;10.82
75273;BMP280;63869;52.344;16.928;2022-12-26T06:21:39;100159.06;;;10.77
75273;BMP280;63869;52.344;16.928;2022-12-26T06:24:04;100155.63;;;10.76
75273;BMP280;63869;52.344;16.928;2022-12-26T06:26:30;100170.75;;;10.83
75273;BMP280;63869;52.344;16.928;2022-12-26T06:28:55;100164.97;;;10.84
75273;BMP280;63869;52.344;16.928;2022-12-26T06:31:22;100171.41;;;10.87
75273;BMP280;63869;52.344;16.928;2022-12-26T06:33:55;100154.38;;;10.81
75273;BMP280;63869;52.344;16.928;2022-12-26T06:36:23;100165.25;;;10.90
75273;BMP280;63869;52.344;16.928;2022-12-26T06:38:49;100158.72;;;10.91
75273;BMP280;63869;52.344;16.928;2022-12-26T06:41:17;100154.53;;;10.90
75273;BMP280;63869;52.344;16.928;2022-12-26T06:43:43;100145.50;;;10.84
75273;BMP280;63869;52.344;16.928;2022-12-26T06:46:13;100162.16;;;10.91
75273;BMP280;63869;52.344;16.928;2022-12-26T06:48:39;100140.00;;;10.75
75273;BMP280;63869;52.344;16.928;2022-12-26T06:51:17;100151.91;;;10.86
75273;BMP280;63869;52.344;16.928;2022-12-26T06:53:43;100160.31;;;10.88
75273;BMP280;63869;52.344;16.928;2022-12-26T06:56:10;100157.28;;;10.86
75273;BMP280;63869;52.344;16.928;2022-12-26T06:58:36;100148.94;;;10.84
75273;BMP280;63869;52.344;16.928;2022-12-26T07:01:06;100153.94;;;10.82
75273;BMP280;63869;52.344;16.928;2022-12-26T07:03:31;100169.66;;;10.80
75273;BMP280;63869;52.344;16.928;2022-12-26T07:06:01;100159.13;;;10.73
75273;BMP280;63869;52.344;16.928;2022-12-26T07:08:26;100154.53;;;10.74
75273;BMP280;63869;52.344;16.928;2022-12-26T07:10:52;100171.75;;;10.73
75273;BMP280;63869;52.344;16.928;2022-12-26T07:13:17;100174.41;;;10.73
75273;BMP280;63869;52.344;16.928;2022-12-26T07:15:42;100185.91;;;10.69
75273;BMP280;63869;52.344;16.928;2022-12-26T07:18:07;100180.91;;;10.71
75273;BMP280;63869;52.344;16.928;2022-12-26T07:20:32;100178.94;;;10.76
75273;BMP280;63869;52.344;16.928;2022-12-26T07:22:58;100173.81;;;10.65
75273;BMP280;63869;52.344;16.928;2022-12-26T07:25:23;100156.44;;;10.57
75273;BMP280;63869;52.344;16.928;2022-12-26T07:27:52;100154.31;;;10.48
75273;BMP280;63869;52.344;16.928;2022-12-26T07:30:17;100156.00;;;10.42
75273;BMP280;63869;52.344;16.928;2022-12-26T07:32:42;100150.69;;;10.39
75273;BMP280;63869;52.344;16.928;2022-12-26T07:35:08;100117.00;;;10.09
75273;BMP280;63869;52.344;16.928;2022-12-26T07:37:33;100156.53;;;10.33
75273;BMP280;63869;52.344;16.928;2022-12-26T07:39:58;100095.56;;;9.92
75273;BMP280;63869;52.344;16.928;2022-12-26T07:42:24;100118.72;;;9.99
75273;BMP280;63869;52.344;16.928;2022-12-26T07:44:49;100119.47;;;9.99
75273;BMP280;63869;52.344;16.928;2022-12-26T07:47:14;100107.41;;;9.91
75273;BMP280;63869;52.344;16.928;2022-12-26T07:49:39;100121.22;;;10.06
75273;BMP280;63869;52.344;16.928;2022-12-26T07:52:05;100132.53;;;10.14
75273;BMP280;63869;52.344;16.928;2022-12-26T07:54:30;100150.41;;;10.17
75273;BMP280;63869;52.344;16.928;2022-12-26T07:56:56;100117.91;;;9.82
75273;BMP280;63869;52.344;16.928;2022-12-26T07:59:21;100143.34;;;9.87
75273;BMP280;63869;52.344;16.928;2022-12-26T08:01:47;100162.88;;;9.84
75273;BMP280;63869;52.344;16.928;2022-12-26T08:04:12;100136.84;;;9.68
75273;BMP280;63869;52.344;16.928;2022-12-26T08:06:38;100170.19;;;9.80
75273;BMP280;63869;52.344;16.928;2022-12-26T08:09:04;100209.56;;;9.95
75273;BMP280;63869;52.344;16.928;2022-12-26T08:11:32;100184.13;;;9.68
75273;BMP280;63869;52.344;16.928;2022-12-26T08:13:57;100207.16;;;9.81
75273;BMP280;63869;52.344;16.928;2022-12-26T08:16:23;100209.28;;;9.90
75273;BMP280;63869;52.344;16.928;2022-12-26T08:18:48;100206.91;;;9.95
75273;BMP280;63869;52.344;16.928;2022-12-26T08:21:13;100212.94;;;9.99
75273;BMP280;63869;52.344;16.928;2022-12-26T08:23:39;100214.44;;;10.00
75273;BMP280;63869;52.344;16.928;2022-12-26T08:26:06;100187.78;;;9.97
75273;BMP280;63869;52.344;16.928;2022-12-26T08:28:32;100197.47;;;10.11
75273;BMP280;63869;52.344;16.928;2022-12-26T08:30:58;100206.84;;;10.19
75273;BMP280;63869;52.344;16.928;2022-12-26T08:33:23;100197.84;;;10.29
75273;BMP280;63869;52.344;16.928;2022-12-26T08:35:49;100193.06;;;10.40
75273;BMP280;63869;52.344;16.928;2022-12-26T08:38:14;100199.09;;;10.44
75273;BMP280;63869;52.344;16.928;2022-12-26T08:40:39;100169.00;;;10.40
75273;BMP280;63869;52.344;16.928;2022-12-26T08:43:05;100199.22;;;10.57
75273;BMP280;63869;52.344;16.928;2022-12-26T08:45:31;100166.88;;;10.31
75273;BMP280;63869;52.344;16.928;2022-12-26T08:47:56;100175.31;;;10.30
75273;BMP280;63869;52.344;16.928;2022-12-26T08:50:22;100198.50;;;10.53
75273;BMP280;63869;52.344;16.928;2022-12-26T08:52:47;100195.28;;;10.61
75273;BMP280;63869;52.344;16.928;2022-12-26T08:55:12;100197.94;;;10.61
75273;BMP280;63869;52.344;16.928;2022-12-26T08:57:38;100203.97;;;10.65
75273;BMP280;63869;52.344;16.928;2022-12-26T09:00:03;100208.50;;;10.68
75273;BMP280;63869;52.344;16.928;2022-12-26T09:02:29;100184.41;;;10.52
75273;BMP280;63869;52.344;16.928;2022-12-26T09:04:54;100193.00;;;10.44
75273;BMP280;63869;52.344;16.928;2022-12-26T09:07:19;100191.41;;;10.46
75273;BMP280;63869;52.344;16.928;2022-12-26T09:09:45;100214.53;;;10.53
75273;BMP280;63869;52.344;16.928;2022-12-26T09:12:11;100209.94;;;10.53
75273;BMP280;63869;52.344;16.928;2022-12-26T09:14:36;100211.44;;;10.54
75273;BMP280;63869;52.344;16.928;2022-12-26T09:17:03;100223.50;;;10.62
75273;BMP280;63869;52.344;16.928;2022-12-26T09:19:28;100191.19;;;10.57
75273;BMP280;63869;52.344;16.928;2022-12-26T09:21:56;100192.94;;;10.63
75273;BMP280;63869;52.344;16.928;2022-12-26T09:24:40;100189.78;;;10.68
75273;BMP280;63869;52.344;16.928;2022-12-26T09:27:06;100211.78;;;10.76
75273;BMP280;63869;52.344;16.928;2022-12-26T09:29:31;100215.44;;;10.82
75273;BMP280;63869;52.344;16.928;2022-12-26T09:31:56;100207.69;;;10.88
75273;BMP280;63869;52.344;16.928;2022-12-26T09:34:22;100229.50;;;11.02
75273;BMP280;63869;52.344;16.928;2022-12-26T09:36:47;100202.72;;;10.86
75273;BMP280;63869;52.344;16.928;2022-12-26T09:39:12;100214.78;;;10.94
75273;BMP280;63869;52.344;16.928;2022-12-26T09:44:24;100240.38;;;11.44
75273;BMP280;63869;52.344;16.928;2022-12-26T09:49:38;100237.34;;;11.74
75273;BMP280;63869;52.344;16.928;2022-12-26T09:52:16;100204.66;;;11.67
75273;BMP280;63869;52.344;16.928;2022-12-26T09:54:49;100136.13;;;11.24
75273;BMP280;63869;52.344;16.928;2022-12-26T09:57:44;100200.44;;;11.66
75273;BMP280;63869;52.344;16.928;2022-12-26T10:00:17;100185.41;;;11.56
75273;BMP280;63869;52.344;16.928;2022-12-26T10:02:47;100194.28;;;11.69
75273;BMP280;63869;52.344;16.928;2022-12-26T10:05:13;100182.91;;;11.77
75273;BMP280;63869;52.344;16.928;2022-12-26T10:07:45;100166.94;;;11.74
75273;BMP280;63869;52.344;16.928;2022-12-26T10:15:38;100189.56;;;11.73
75273;BMP280;63869;52.344;16.928;2022-12-26T10:21:24;100195.31;;;11.71
75273;BMP280;63869;52.344;16.928;2022-12-26T10:23:55;100192.78;;;11.81
75273;BMP280;63869;52.344;16.928;2022-12-26T10:26:24;100193.91;;;11.96
75273;BMP280;63869;52.344;16.928;2022-12-26T10:29:17;100195.66;;;12.02
75273;BMP280;63869;52.344;16.928;2022-12-26T10:31:57;100212.28;;;12.10
75273;BMP280;63869;52.344;16.928;2022-12-26T10:34:27;100219.13;;;12.11
75273;BMP280;63869;52.344;16.928;2022-12-26T10:37:11;100228.34;;;12.10
75273;BMP280;63869;52.344;16.928;2022-12-26T10:39:46;100195.81;;;11.95
75273;BMP280;63869;52.344;16.928;2022-12-26T10:42:38;100221.91;;;12.07
75273;BMP280;63869;52.344;16.928;2022-12-26T10:47:44;100193.94;;;12.08
75273;BMP280;63869;52.344;16.928;2022-12-26T10:50:18;100201.16;;;12.24
75273;BMP280;63869;52.344;16.928;2022-12-26T10:52:44;100191.41;;;12.18
75273;BMP280;63869;52.344;16.928;2022-12-26T10:55:15;100182.94;;;12.19
75273;BMP280;63869;52.344;16.928;2022-12-26T10:57:43;100203.84;;;12.37
75273;BMP280;63869;52.344;16.928;2022-12-26T11:00:17;100192.28;;;12.40
75273;BMP280;63869;52.344;16.928;2022-12-26T11:02:42;100182.81;;;12.35
75273;BMP280;63869;52.344;16.928;2022-12-26T11:05:10;100172.00;;;12.26
75273;BMP280;63869;52.344;16.928;2022-12-26T11:07:46;100188.94;;;12.36
75273;BMP280;63869;52.344;16.928;2022-12-26T11:10:19;100193.13;;;12.37
75273;BMP280;63869;52.344;16.928;2022-12-26T11:12:50;100202.34;;;12.36
75273;BMP280;63869;52.344;16.928;2022-12-26T11:18:06;100187.13;;;12.20
75273;BMP280;63869;52.344;16.928;2022-12-26T11:20:31;100209.22;;;12.37
75273;BMP280;63869;52.344;16.928;2022-12-26T11:23:20;100209.22;;;12.37
75273;BMP280;63869;52.344;16.928;2022-12-26T11:25:48;100189.88;;;12.17
75273;BMP280;63869;52.344;16.928;2022-12-26T11:28:35;100207.81;;;12.20
75273;BMP280;63869;52.344;16.928;2022-12-26T11:31:04;100220.94;;;12.01
75273;BMP280;63869;52.344;16.928;2022-12-26T11:33:35;100216.66;;;11.75
75273;BMP280;63869;52.344;16.928;2022-12-26T11:36:05;100214.66;;;11.63
75273;BMP280;63869;52.344;16.928;2022-12-26T11:38:33;100204.84;;;11.44
75273;BMP280;63869;52.344;16.928;2022-12-26T11:41:16;100231.03;;;11.52
75273;BMP280;63869;52.344;16.928;2022-12-26T11:46:39;100229.56;;;11.48
75273;BMP280;63869;52.344;16.928;2022-12-26T11:49:15;100204.44;;;11.29
75273;BMP280;63869;52.344;16.928;2022-12-26T11:51:45;100231.78;;;11.53
75273;BMP280;63869;52.344;16.928;2022-12-26T11:56:48;100201.31;;;11.47
75273;BMP280;63869;52.344;16.928;2022-12-26T11:59:22;100222.81;;;11.59
75273;BMP280;63869;52.344;16.928;2022-12-26T12:02:18;100213.59;;;11.60
75273;BMP280;63869;52.344;16.928;2022-12-26T12:04:45;100203.38;;;11.55
75273;BMP280;63869;52.344;16.928;2022-12-26T12:15:21;100190.34;;;11.57
75273;BMP280;63869;52.344;16.928;2022-12-26T12:18:35;100195.03;;;11.69
75273;BMP280;63869;52.344;16.928;2022-12-26T12:26:39;100198.88;;;11.81
75273;BMP280;63869;52.344;16.928;2022-12-26T12:31:48;100187.03;;;11.82
75273;BMP280;63869;52.344;16.928;2022-12-26T12:42:47;100170.38;;;11.74
75273;BMP280;63869;52.344;16.928;2022-12-26T12:45:32;100202.31;;;11.82
75273;BMP280;63869;52.344;16.928;2022-12-26T12:48:29;100199.56;;;11.85
75273;BMP280;63869;52.344;16.928;2022-12-26T12:56:30;100185.22;;;11.63
75273;BMP280;63869;52.344;16.928;2022-12-26T12:59:15;100196.63;;;11.67
75273;BMP280;63869;52.344;16.928;2022-12-26T13:01:47;100200.84;;;11.64
75273;BMP280;63869;52.344;16.928;2022-12-26T13:04:19;100172.56;;;11.51
75273;BMP280;63869;52.344;16.928;2022-12-26T13:06:51;100194.41;;;11.62
75273;BMP280;63869;52.344;16.928;2022-12-26T13:09:45;100196.66;;;11.63
75273;BMP280;63869;52.344;16.928;2022-12-26T13:12:21;100170.25;;;11.49
75273;BMP280;63869;52.344;16.928;2022-12-26T13:14:55;100197.00;;;11.65
75273;BMP280;63869;52.344;16.928;2022-12-26T13:17:26;100195.75;;;11.70
75273;BMP280;63869;52.344;16.928;2022-12-26T13:20:05;100180.69;;;11.76
75273;BMP280;63869;52.344;16.928;2022-12-26T13:22:40;100180.19;;;11.65
75273;BMP280;63869;52.344;16.928;2022-12-26T13:25:32;100194.16;;;11.72
75273;BMP280;63869;52.344;16.928;2022-12-26T13:28:01;100166.78;;;11.52
75273;BMP280;63869;52.344;16.928;2022-12-26T13:30:34;100210.22;;;11.72
75273;BMP280;63869;52.344;16.928;2022-12-26T13:33:00;100176.19;;;11.57
75273;BMP280;63869;52.344;16.928;2022-12-26T13:36:00;100190.09;;;11.68
75273;BMP280;63869;52.344;16.928;2022-12-26T13:41:24;100175.06;;;11.41
75273;BMP280;63869;52.344;16.928;2022-12-26T13:44:29;100183.63;;;11.36
75273;BMP280;63869;52.344;16.928;2022-12-26T13:46:57;100223.25;;;11.41
75273;BMP280;63869;52.344;16.928;2022-12-26T13:49:34;100208.88;;;11.35
75273;BMP280;63869;52.344;16.928;2022-12-26T13:54:34;100215.06;;;11.16
75273;BMP280;63869;52.344;16.928;2022-12-26T13:57:13;100219.22;;;11.17
75273;BMP280;63869;52.344;16.928;2022-12-26T13:59:52;100214.38;;;11.12
75273;BMP280;63869;52.344;16.928;2022-12-26T14:16:19;100194.91;;;11.12
75273;BMP280;63869;52.344;16.928;2022-12-26T14:19:01;100234.22;;;11.31
75273;BMP280;63869;52.344;16.928;2022-12-26T14:29:48;100216.53;;;11.01
75273;BMP280;63869;52.344;16.928;2022-12-26T14:35:30;100250.84;;;11.06
75273;BMP280;63869;52.344;16.928;2022-12-26T14:38:11;100246.72;;;11.01
75273;BMP280;63869;52.344;16.928;2022-12-26T14:46:02;100236.94;;;10.95
75273;BMP280;63869;52.344;16.928;2022-12-26T14:50:54;100251.94;;;10.92
75273;BMP280;63869;52.344;16.928;2022-12-26T15:15:40;100221.22;;;10.81
75273;BMP280;63869;52.344;16.928;2022-12-26T15:18:50;100211.50;;;10.87
75273;BMP280;63869;52.344;16.928;2022-12-26T15:24:23;100260.38;;;10.91
75273;BMP280;63869;52.344;16.928;2022-12-26T15:35:29;100243.31;;;10.06
75273;BMP280;63869;52.344;16.928;2022-12-26T15:38:10;100252.41;;;10.31
75273;BMP280;63869;52.344;16.928;2022-12-26T15:40:53;100241.56;;;10.39
75273;BMP280;63869;52.344;16.928;2022-12-26T15:43:34;100246.34;;;10.67
75273;BMP280;63869;52.344;16.928;2022-12-26T15:54:13;100260.28;;;11.11
75273;BMP280;63869;52.344;16.928;2022-12-26T15:56:50;100260.56;;;11.16
75273;BMP280;63869;52.344;16.928;2022-12-26T16:05:27;100293.00;;;11.34
75273;BMP280;63869;52.344;16.928;2022-12-26T16:08:43;100283.16;;;11.31
75273;BMP280;63869;52.344;16.928;2022-12-26T16:11:13;100296.44;;;11.35
75273;BMP280;63869;52.344;16.928;2022-12-26T16:13:53;100294.91;;;11.34
75273;BMP280;63869;52.344;16.928;2022-12-26T16:16:30;100306.31;;;11.38
75273;BMP280;63869;52.344;16.928;2022-12-26T16:18:56;100300.22;;;11.37
75273;BMP280;63869;52.344;16.928;2022-12-26T16:21:25;100298.72;;;11.36
75273;BMP280;63869;52.344;16.928;2022-12-26T16:24:11;100297.34;;;11.28
75273;BMP280;63869;52.344;16.928;2022-12-26T16:26:42;100311.72;;;11.34
75273;BMP280;63869;52.344;16.928;2022-12-26T16:29:14;100300.78;;;11.29
75273;BMP280;63869;52.344;16.928;2022-12-26T16:31:40;100312.59;;;11.31
75273;BMP280;63869;52.344;16.928;2022-12-26T16:34:10;100326.78;;;11.28
75273;BMP280;63869;52.344;16.928;2022-12-26T16:36:37;100314.50;;;11.31
75273;BMP280;63869;52.344;16.928;2022-12-26T16:39:08;100324.75;;;11.32
75273;BMP280;63869;52.344;16.928;2022-12-26T16:41:36;100314.56;;;11.27
75273;BMP280;63869;52.344;16.928;2022-12-26T16:44:31;100323.59;;;11.33
75273;BMP280;63869;52.344;16.928;2022-12-26T16:47:00;100315.66;;;11.30
75273;BMP280;63869;52.344;16.928;2022-12-26T16:49:26;100316.69;;;11.36
75273;BMP280;63869;52.344;16.928;2022-12-26T16:51:51;100327.28;;;11.39
75273;BMP280;63869;52.344;16.928;2022-12-26T16:56:59;100315.94;;;11.35
75273;BMP280;63869;52.344;16.928;2022-12-26T16:59:35;100317.44;;;11.36
75273;BMP280;63869;52.344;16.928;2022-12-26T17:02:02;100329.66;;;11.37
75273;BMP280;63869;52.344;16.928;2022-12-26T17:04:29;100331.16;;;11.38
75273;BMP280;63869;52.344;16.928;2022-12-26T17:07:13;100329.25;;;11.39
75273;BMP280;63869;52.344;16.928;2022-12-26T17:09:42;100332.38;;;11.34
75273;BMP280;63869;52.344;16.928;2022-12-26T17:12:23;100292.31;;;11.14
75273;BMP280;63869;52.344;16.928;2022-12-26T17:14:51;100322.19;;;11.29
75273;BMP280;63869;52.344;16.928;2022-12-26T17:19:53;100317.88;;;11.35
75273;BMP280;63869;52.344;16.928;2022-12-26T17:22:29;100315.94;;;11.35
75273;BMP280;63869;52.344;16.928;2022-12-26T17:25:21;100320.53;;;11.35
75273;BMP280;63869;52.344;16.928;2022-12-26T17:30:57;100309.91;;;11.31
75273;BMP280;63869;52.344;16.928;2022-12-26T17:33:35;100307.63;;;11.30
75273;BMP280;63869;52.344;16.928;2022-12-26T17:36:02;100290.31;;;11.18
75273;BMP280;63869;52.344;16.928;2022-12-26T17:38:29;100312.25;;;11.29
75273;BMP280;63869;52.344;16.928;2022-12-26T17:40:56;100318.34;;;11.30